createdAt,value
2019-05-05T00:00:56.579Z,90.89
2019-05-05T00:01:56.560Z,90.62
2019-05-05T00:02:56.549Z,91.04
2019-05-05T00:03:56.585Z,90.93
2019-05-05T00:04:56.529Z,91.56
2019-05-05T00:05:56.531Z,91.14
2019-05-05T00:06:56.504Z,91.14
2019-05-05T00:07:56.494Z,91.25
2019-05-05T00:08:56.506Z,91.46
2019-05-05T00:09:56.480Z,91.60
2019-05-05T00:10:56.971Z,91.81
2019-05-05T00:11:56.493Z,91.71
2019-05-05T00:12:56.437Z,91.91
2019-05-05T00:13:56.429Z,91.81
2019-05-05T00:14:56.418Z,91.81
2019-05-05T00:15:56.408Z,91.85
2019-05-05T00:16:56.426Z,91.64
2019-05-05T00:17:56.385Z,91.64
2019-05-05T00:18:56.370Z,92.37
2019-05-05T00:19:56.360Z,92.68
2019-05-05T00:20:56.350Z,92.06
2019-05-05T00:21:56.372Z,93.10
2019-05-05T00:22:56.377Z,92.68
2019-05-05T00:23:56.324Z,92.79
2019-05-05T00:24:56.305Z,92.79
2019-05-05T00:25:56.327Z,92.93
2019-05-05T00:26:56.288Z,92.79
2019-05-05T00:27:56.272Z,92.93
2019-05-05T00:28:56.271Z,92.99
2019-05-05T00:29:56.251Z,93.04
2019-05-05T00:30:56.261Z,92.58
2019-05-05T00:31:56.230Z,92.72
2019-05-05T00:32:56.242Z,92.68
2019-05-05T00:33:56.203Z,92.52
2019-05-05T00:34:56.206Z,92.62
2019-05-05T00:35:56.182Z,92.72
2019-05-05T00:36:56.200Z,93.14
2019-05-05T00:37:56.163Z,92.62
2019-05-05T00:38:56.150Z,92.31
2019-05-05T00:39:56.167Z,92.93
2019-05-05T00:40:56.132Z,92.62
2019-05-05T00:41:56.134Z,92.41
2019-05-05T00:42:56.121Z,92.62
2019-05-05T00:43:56.112Z,92.83
2019-05-05T00:44:56.083Z,93.14
2019-05-05T00:45:56.075Z,92.31
2019-05-05T00:46:56.093Z,92.03
2019-05-05T00:47:56.050Z,92.35
2019-05-05T00:48:56.065Z,92.46
2019-05-05T00:49:56.390Z,92.46
2019-05-05T00:50:56.017Z,92.25
2019-05-05T00:51:56.006Z,92.14
2019-05-05T00:52:56.035Z,92.46
2019-05-05T00:53:56.008Z,93.12
2019-05-05T00:54:55.974Z,93.12
2019-05-05T00:55:55.959Z,93.12
2019-05-05T00:56:55.948Z,93.02
2019-05-05T00:57:55.941Z,92.71
2019-05-05T00:58:55.954Z,92.81
2019-05-05T00:59:55.925Z,92.81
2019-05-05T01:00:55.919Z,92.91
2019-05-05T01:01:55.894Z,92.85
2019-05-05T01:02:55.882Z,93.02
2019-05-05T01:03:55.871Z,93.16
2019-05-05T01:04:55.863Z,93.16
2019-05-05T01:05:55.882Z,93.06
2019-05-05T01:06:55.854Z,92.75
2019-05-05T01:07:55.828Z,92.65
2019-05-05T01:08:55.815Z,92.96
2019-05-05T01:09:55.809Z,92.85
2019-05-05T01:10:55.812Z,92.96
2019-05-05T01:11:55.813Z,92.65
2019-05-05T01:12:55.771Z,92.44
2019-05-05T01:13:55.761Z,93.48
2019-05-05T01:14:55.751Z,93.16
2019-05-05T01:15:55.768Z,93.41
2019-05-05T01:16:55.726Z,93.06
2019-05-05T01:17:55.737Z,93.59
2019-05-05T01:18:55.709Z,93.06
2019-05-05T01:20:03.478Z,93.63
2019-05-05T01:20:56.708Z,93.69
2019-05-05T01:21:55.676Z,93.79
2019-05-05T01:22:55.660Z,93.63
2019-05-05T01:23:55.673Z,93.84
2019-05-05T01:24:55.652Z,93.73
2019-05-05T01:25:55.650Z,93.84
2019-05-05T01:26:55.616Z,93.84
2019-05-05T01:27:55.609Z,93.84
2019-05-05T01:28:56.271Z,93.88
2019-05-05T01:29:55.582Z,93.88
2019-05-05T01:30:55.597Z,93.88
2019-05-05T01:31:55.570Z,93.88
2019-05-05T01:32:56.080Z,93.88
2019-05-05T01:33:55.542Z,93.77
2019-05-05T01:34:55.557Z,93.57
2019-05-05T01:35:55.515Z,94.29
2019-05-05T01:36:55.506Z,93.77
2019-05-05T01:37:55.496Z,93.88
2019-05-05T01:38:55.527Z,93.88
2019-05-05T01:39:55.508Z,93.57
2019-05-05T01:40:55.459Z,93.82
2019-05-05T01:41:55.486Z,93.82
2019-05-05T01:42:55.436Z,93.35
2019-05-05T01:43:55.424Z,94.02
2019-05-05T01:44:55.429Z,94.44
2019-05-05T01:45:55.429Z,94.34
2019-05-05T01:46:55.392Z,94.61
2019-05-05T01:47:55.382Z,94.02
2019-05-05T01:48:55.374Z,93.92
2019-05-05T01:49:55.370Z,94.23
2019-05-05T01:50:55.372Z,93.92
2019-05-05T01:51:55.485Z,94.34
2019-05-05T01:52:55.629Z,94.17
2019-05-05T01:53:55.339Z,94.17
2019-05-05T01:54:55.304Z,94.07
2019-05-05T01:55:55.299Z,94.07
2019-05-05T01:56:55.653Z,94.07
2019-05-05T01:57:55.286Z,94.27
2019-05-05T01:58:55.258Z,94.07
2019-05-05T01:59:55.423Z,94.27
2019-05-05T02:00:55.237Z,94.17
2019-05-05T02:01:55.298Z,94.27
2019-05-05T02:02:55.456Z,94.17
2019-05-05T02:03:55.217Z,94.27
2019-05-05T02:04:55.522Z,94.17
2019-05-05T02:05:55.181Z,94.49
2019-05-05T02:06:55.211Z,94.49
2019-05-05T02:07:55.408Z,94.59
2019-05-05T02:08:55.172Z,94.59
2019-05-05T02:09:55.534Z,94.59
2019-05-05T02:10:55.127Z,95.11
2019-05-05T02:11:55.116Z,94.59
2019-05-05T02:12:55.249Z,94.59
2019-05-05T02:13:55.113Z,95.01
2019-05-05T02:14:55.329Z,95.21
2019-05-05T02:15:55.314Z,95.01
2019-05-05T02:16:55.061Z,94.90
2019-05-05T02:17:55.214Z,94.95
2019-05-05T02:18:55.039Z,94.90
2019-05-05T02:19:55.162Z,94.74
2019-05-05T02:20:55.014Z,95.15
2019-05-05T02:21:55.103Z,94.95
2019-05-05T02:22:55.256Z,94.95
2019-05-05T02:23:55.012Z,94.21
2019-05-05T02:24:55.296Z,94.84
2019-05-05T02:25:55.382Z,95.15
2019-05-05T02:26:54.946Z,94.64
2019-05-05T02:27:54.939Z,94.74
2019-05-05T02:28:54.943Z,94.53
2019-05-05T02:29:54.992Z,94.95
2019-05-05T02:30:55.205Z,94.74
2019-05-05T02:31:55.307Z,94.74
2019-05-05T02:32:55.516Z,94.32
2019-05-05T02:33:56.821Z,94.84
2019-05-05T02:34:56.322Z,94.95
2019-05-05T02:35:55.799Z,95.15
2019-05-05T02:36:56.475Z,95.15
2019-05-05T02:37:55.786Z,94.84
2019-05-05T02:38:56.745Z,94.74
2019-05-05T02:40:02.009Z,95.15
2019-05-05T02:40:55.805Z,95.15
2019-05-05T02:41:54.918Z,95.05
2019-05-05T02:42:55.071Z,95.15
2019-05-05T02:43:55.741Z,94.95
2019-05-05T02:44:54.749Z,94.89
2019-05-05T02:45:55.304Z,95.09
2019-05-05T02:46:55.234Z,94.84
2019-05-05T02:47:55.129Z,95.20
2019-05-05T02:48:55.222Z,95.20
2019-05-05T02:49:55.034Z,94.99
2019-05-05T02:51:00.142Z,94.89
2019-05-05T02:51:55.700Z,94.68
2019-05-05T02:52:54.658Z,94.57
2019-05-05T02:53:54.649Z,94.57
2019-05-05T02:54:54.636Z,94.78
2019-05-05T02:55:54.626Z,94.78
2019-05-05T02:56:54.638Z,94.68
2019-05-05T02:57:54.608Z,94.93
2019-05-05T02:58:54.591Z,94.62
2019-05-05T02:59:54.579Z,95.03
2019-05-05T03:00:54.569Z,94.72
2019-05-05T03:01:54.584Z,94.72
2019-05-05T03:02:54.572Z,94.62
2019-05-05T03:03:54.570Z,94.82
2019-05-05T03:04:54.526Z,94.82
2019-05-05T03:05:54.513Z,94.82
2019-05-05T03:06:54.503Z,95.14
2019-05-05T03:07:54.491Z,94.82
2019-05-05T03:08:54.503Z,95.14
2019-05-05T03:09:54.608Z,95.25
2019-05-05T03:10:54.457Z,94.82
2019-05-05T03:11:54.446Z,95.25
2019-05-05T03:12:54.514Z,94.72
2019-05-05T03:13:54.425Z,94.82
2019-05-05T03:14:54.418Z,94.62
2019-05-05T03:15:55.098Z,94.93
2019-05-05T03:16:54.392Z,94.93
2019-05-05T03:17:54.381Z,94.72
2019-05-05T03:18:54.584Z,95.03
2019-05-05T03:19:54.358Z,95.03
2019-05-05T03:21:03.849Z,94.97
2019-05-05T03:21:55.364Z,95.39
2019-05-05T03:22:54.324Z,95.25
2019-05-05T03:23:54.871Z,94.97
2019-05-05T03:24:54.303Z,95.03
2019-05-05T03:25:54.626Z,95.03
2019-05-05T03:26:54.282Z,95.18
2019-05-05T03:27:54.275Z,95.14
2019-05-05T03:28:54.482Z,95.29
2019-05-05T03:29:54.255Z,94.76
2019-05-05T03:30:55.819Z,94.56
2019-05-05T03:31:56.325Z,95.39
2019-05-05T03:32:55.971Z,94.97
2019-05-05T03:33:55.090Z,94.76
2019-05-05T03:34:54.234Z,94.76
2019-05-05T03:35:54.277Z,94.76
2019-05-05T03:36:54.174Z,94.76
2019-05-05T03:37:54.549Z,94.76
2019-05-05T03:38:54.147Z,94.76
2019-05-05T03:39:54.152Z,94.76
2019-05-05T03:40:54.263Z,94.97
2019-05-05T03:41:54.368Z,94.97
2019-05-05T03:42:54.127Z,95.18
2019-05-05T03:43:56.915Z,95.07
2019-05-05T03:44:54.558Z,95.07
2019-05-05T03:45:54.071Z,94.97
2019-05-05T03:46:54.431Z,95.03
2019-05-05T03:47:54.218Z,95.18
2019-05-05T03:48:54.247Z,95.14
2019-05-05T03:49:54.029Z,94.93
2019-05-05T03:50:54.163Z,95.35
2019-05-05T03:51:54.385Z,94.72
2019-05-05T03:52:54.497Z,94.93
2019-05-05T03:53:53.982Z,95.25
2019-05-05T03:54:54.237Z,94.93
2019-05-05T03:55:54.560Z,94.72
2019-05-05T03:56:54.539Z,94.72
2019-05-05T03:57:53.937Z,94.82
2019-05-05T03:58:54.332Z,94.93
2019-05-05T03:59:54.719Z,94.93
2019-05-05T04:00:54.895Z,95.14
2019-05-05T04:01:54.550Z,95.14
2019-05-05T04:02:53.956Z,95.25
2019-05-05T04:03:54.145Z,95.25
2019-05-05T04:04:55.021Z,95.18
2019-05-05T04:05:53.881Z,94.93
2019-05-05T04:06:54.122Z,94.72
2019-05-05T04:07:54.551Z,94.93
2019-05-05T04:08:53.862Z,94.72
2019-05-05T04:09:54.352Z,94.62
2019-05-05T04:10:54.617Z,94.82
2019-05-05T04:11:54.090Z,94.51
2019-05-05T04:12:54.002Z,94.82
2019-05-05T04:13:54.235Z,95.03
2019-05-05T04:14:54.556Z,94.82
2019-05-05T04:15:53.770Z,94.72
2019-05-05T04:16:54.077Z,95.03
2019-05-05T04:17:53.768Z,94.93
2019-05-05T04:18:54.312Z,94.93
2019-05-05T04:19:54.263Z,94.62
2019-05-05T04:20:53.703Z,94.62
2019-05-05T04:21:53.749Z,94.82
2019-05-05T04:22:55.220Z,94.51
2019-05-05T04:23:53.651Z,94.82
2019-05-05T04:24:54.236Z,94.72
2019-05-05T04:25:54.419Z,94.62
2019-05-05T04:26:54.584Z,94.40
2019-05-05T04:27:53.904Z,94.62
2019-05-05T04:28:54.147Z,94.72
2019-05-05T04:29:54.504Z,94.93
2019-05-05T04:30:53.760Z,95.03
2019-05-05T04:31:54.118Z,95.03
2019-05-05T04:32:54.583Z,94.93
2019-05-05T04:33:53.904Z,94.78
2019-05-05T04:34:54.308Z,95.09
2019-05-05T04:35:54.540Z,94.89
2019-05-05T04:36:54.648Z,94.68
2019-05-05T04:37:54.239Z,94.57
2019-05-05T04:38:54.601Z,94.05
2019-05-05T04:39:53.854Z,94.57
2019-05-05T04:40:54.198Z,94.15
2019-05-05T04:41:54.552Z,94.53
2019-05-05T04:42:54.642Z,94.21
2019-05-05T04:43:54.688Z,93.38
2019-05-05T04:44:53.913Z,93.90
2019-05-05T04:45:54.122Z,94.01
2019-05-05T04:46:54.572Z,93.80
2019-05-05T04:47:54.005Z,94.11
2019-05-05T04:48:54.441Z,94.38
2019-05-05T04:49:53.879Z,93.48
2019-05-05T04:50:54.384Z,93.44
2019-05-05T04:51:53.930Z,93.44
2019-05-05T04:52:54.051Z,93.80
2019-05-05T04:53:54.311Z,93.76
2019-05-05T04:54:55.467Z,93.33
2019-05-05T04:55:53.650Z,93.44
2019-05-05T04:56:53.970Z,93.23
2019-05-05T04:57:54.033Z,93.40
2019-05-05T04:58:54.442Z,93.50
2019-05-05T04:59:54.044Z,93.44
2019-05-05T05:00:54.702Z,92.66
2019-05-05T05:01:54.632Z,92.88
2019-05-05T05:02:53.950Z,93.15
2019-05-05T05:03:54.324Z,92.83
2019-05-05T05:04:53.593Z,92.69
2019-05-05T05:05:53.725Z,93.04
2019-05-05T05:06:54.246Z,92.37
2019-05-05T05:07:54.622Z,92.47
2019-05-05T05:08:53.672Z,92.65
2019-05-05T05:09:54.042Z,92.75
2019-05-05T05:10:54.316Z,92.02
2019-05-05T05:11:54.739Z,92.22
2019-05-05T05:12:54.003Z,91.56
2019-05-05T05:13:54.477Z,91.97
2019-05-05T05:14:54.665Z,91.35
2019-05-05T05:15:53.956Z,91.10
2019-05-05T05:16:54.145Z,91.16
2019-05-05T05:17:53.555Z,91.27
2019-05-05T05:18:53.771Z,90.19
2019-05-05T05:19:54.196Z,89.83
2019-05-05T05:20:54.903Z,89.37
2019-05-05T05:22:01.622Z,88.02
2019-05-05T05:22:54.484Z,87.35
2019-05-05T05:23:53.605Z,86.52
2019-05-05T05:24:54.108Z,86.11
2019-05-05T05:25:54.399Z,85.75
2019-05-05T05:26:52.951Z,84.92
2019-05-05T05:27:53.619Z,84.05
2019-05-05T05:28:53.852Z,83.84
2019-05-05T05:29:54.404Z,82.60
2019-05-05T05:30:54.576Z,82.60
2019-05-05T05:31:53.543Z,82.60
2019-05-05T05:32:53.878Z,81.56
2019-05-05T05:33:54.807Z,81.25
2019-05-05T05:34:54.238Z,81.04
2019-05-05T05:35:54.614Z,81.15
2019-05-05T05:36:53.631Z,81.32
2019-05-05T05:37:54.006Z,81.01
2019-05-05T05:38:54.165Z,80.93
2019-05-05T05:39:54.539Z,80.23
2019-05-05T05:40:53.588Z,79.33
2019-05-05T05:41:54.121Z,78.81
2019-05-05T05:42:54.211Z,77.01
2019-05-05T05:43:54.160Z,76.78
2019-05-05T05:44:53.526Z,75.09
2019-05-05T05:45:54.208Z,75.05
2019-05-05T05:46:54.571Z,73.91
2019-05-05T05:47:53.693Z,74.60
2019-05-05T05:48:53.851Z,73.77
2019-05-05T05:49:54.425Z,72.16
2019-05-05T05:50:53.704Z,73.08
2019-05-05T05:51:53.833Z,72.05
2019-05-05T05:52:54.071Z,72.16
2019-05-05T05:53:54.373Z,71.74
2019-05-05T05:54:53.529Z,71.33
2019-05-05T05:55:53.787Z,71.12
2019-05-05T05:56:53.825Z,72.47
2019-05-05T05:57:54.199Z,71.50
2019-05-05T05:58:54.261Z,70.85
2019-05-05T05:59:54.748Z,71.02
2019-05-05T06:00:53.969Z,69.85
2019-05-05T06:02:06.081Z,69.41
2019-05-05T06:02:54.597Z,67.76
2019-05-05T06:03:53.601Z,66.63
2019-05-05T06:04:53.947Z,69.31
2019-05-05T06:05:54.000Z,70.48
2019-05-05T06:06:54.375Z,68.32
2019-05-05T06:07:54.447Z,70.07
2019-05-05T06:08:54.284Z,70.24
2019-05-05T06:09:54.166Z,67.77
2019-05-05T06:10:54.529Z,67.77
2019-05-05T06:11:54.198Z,69.59
2019-05-05T06:12:54.147Z,67.88
2019-05-05T06:13:54.395Z,66.34
2019-05-05T06:14:53.702Z,65.20
2019-05-05T06:15:53.551Z,63.15
2019-05-05T06:16:53.976Z,64.11
2019-05-05T06:17:54.016Z,64.96
2019-05-05T06:18:54.223Z,66.71
2019-05-05T06:19:53.443Z,66.12
2019-05-05T06:20:53.776Z,66.74
2019-05-05T06:21:54.146Z,65.74
2019-05-05T06:22:53.541Z,67.70
2019-05-05T06:23:53.798Z,69.35
2019-05-05T06:24:54.135Z,69.73
2019-05-05T06:25:54.859Z,69.52
2019-05-05T06:26:54.592Z,68.87
2019-05-05T06:27:54.027Z,65.58
2019-05-05T06:28:54.084Z,67.60
2019-05-05T06:29:54.232Z,68.22
2019-05-05T06:30:54.477Z,62.97
2019-05-05T06:31:53.771Z,63.54
2019-05-05T06:32:54.358Z,65.19
2019-05-05T06:33:54.203Z,65.19
2019-05-05T06:34:53.438Z,66.33
2019-05-05T06:35:53.557Z,65.92
2019-05-05T06:36:53.728Z,64.89
2019-05-05T06:37:54.313Z,66.61
2019-05-05T06:38:54.039Z,66.88
2019-05-05T06:39:54.302Z,65.13
2019-05-05T06:40:53.713Z,65.62
2019-05-05T06:41:53.860Z,65.89
2019-05-05T06:42:53.895Z,65.38
2019-05-05T06:43:54.223Z,62.92
2019-05-05T06:44:53.510Z,62.60
2019-05-05T06:45:53.526Z,62.71
2019-05-05T06:46:53.754Z,64.90
2019-05-05T06:47:53.744Z,66.13
2019-05-05T06:48:53.878Z,63.31
2019-05-05T06:49:54.085Z,62.31
2019-05-05T06:50:52.017Z,64.78
2019-05-05T06:51:52.007Z,66.05
2019-05-05T06:52:53.667Z,64.27
2019-05-05T06:53:53.873Z,64.96
2019-05-05T06:54:54.141Z,64.03
2019-05-05T06:55:54.146Z,65.68
2019-05-05T06:56:53.834Z,65.23
2019-05-05T06:57:53.775Z,64.93
2019-05-05T06:58:53.890Z,65.72
2019-05-05T06:59:51.943Z,65.20
2019-05-05T07:00:51.906Z,64.97
2019-05-05T07:01:53.572Z,64.04
2019-05-05T07:02:53.930Z,64.79
2019-05-05T07:03:51.859Z,63.49
2019-05-05T07:04:51.883Z,64.62
2019-05-05T07:05:53.834Z,65.03
2019-05-05T07:06:56.316Z,65.34
2019-05-05T07:07:53.749Z,67.06
2019-05-05T07:08:51.805Z,66.89
2019-05-05T07:09:54.142Z,63.40
2019-05-05T07:10:51.800Z,64.25
2019-05-05T07:11:53.944Z,63.53
2019-05-05T07:12:51.785Z,62.60
2019-05-05T07:13:53.689Z,63.28
2019-05-05T07:14:53.657Z,64.72
2019-05-05T07:15:51.729Z,64.24
2019-05-05T07:16:51.713Z,64.99
2019-05-05T07:17:53.582Z,64.40
2019-05-05T07:18:53.786Z,66.05
2019-05-05T07:19:54.212Z,67.32
2019-05-05T07:20:51.677Z,68.79
2019-05-05T07:21:53.625Z,70.44
2019-05-05T07:23:01.427Z,69.31
2019-05-05T07:23:53.851Z,70.57
2019-05-05T07:24:51.627Z,68.85
2019-05-05T07:25:51.627Z,70.43
2019-05-05T07:26:51.628Z,71.26
2019-05-05T07:27:51.617Z,71.61
2019-05-05T07:28:51.614Z,71.61
2019-05-05T07:29:51.569Z,71.30
2019-05-05T07:30:51.621Z,72.33
2019-05-05T07:31:51.553Z,72.05
2019-05-05T07:32:53.606Z,73.39
2019-05-05T07:33:51.549Z,74.40
2019-05-05T07:34:51.517Z,75.22
2019-05-05T07:35:56.776Z,73.64
2019-05-05T07:36:54.642Z,74.67
2019-05-05T07:37:53.741Z,74.22
2019-05-05T07:38:51.548Z,72.67
2019-05-05T07:39:51.456Z,71.44
2019-05-05T07:40:51.448Z,71.57
2019-05-05T07:41:51.445Z,73.19
2019-05-05T07:42:51.426Z,72.78
2019-05-05T07:43:51.438Z,73.05
2019-05-05T07:44:51.430Z,71.71
2019-05-05T07:45:51.392Z,73.16
2019-05-05T07:46:51.383Z,71.47
2019-05-05T07:47:51.366Z,71.47
2019-05-05T07:48:51.355Z,71.64
2019-05-05T07:49:53.424Z,70.79
2019-05-05T07:50:59.815Z,70.48
2019-05-05T07:51:54.481Z,70.07
2019-05-05T07:52:51.313Z,69.73
2019-05-05T07:53:51.328Z,69.93
2019-05-05T07:54:51.356Z,69.11
2019-05-05T07:55:51.277Z,68.49
2019-05-05T07:56:51.262Z,67.70
2019-05-05T07:57:51.310Z,68.04
2019-05-05T07:58:51.253Z,69.48
2019-05-05T07:59:51.246Z,69.59
2019-05-05T08:00:51.246Z,69.45
2019-05-05T08:01:51.207Z,69.01
2019-05-05T08:02:51.326Z,69.83
2019-05-05T08:03:51.201Z,67.57
2019-05-05T08:04:51.177Z,67.19
2019-05-05T08:05:51.165Z,67.85
2019-05-05T08:06:51.181Z,65.77
2019-05-05T08:07:51.139Z,63.90
2019-05-05T08:08:51.150Z,64.64
2019-05-05T08:09:51.165Z,64.03
2019-05-05T08:10:51.104Z,64.06
2019-05-05T08:11:51.101Z,65.22
2019-05-05T08:12:51.094Z,65.94
2019-05-05T08:13:51.096Z,65.73
2019-05-05T08:14:51.065Z,67.14
2019-05-05T08:15:59.144Z,65.70
2019-05-05T08:16:53.589Z,65.22
2019-05-05T08:17:51.030Z,64.09
2019-05-05T08:18:51.049Z,64.07
2019-05-05T08:19:51.025Z,62.40
2019-05-05T08:20:50.992Z,60.74
2019-05-05T08:21:51.063Z,60.24
2019-05-05T08:22:51.005Z,58.48
2019-05-05T08:23:50.976Z,60.08
2019-05-05T08:24:50.981Z,59.30
2019-05-05T08:25:50.936Z,59.01
2019-05-05T08:26:50.990Z,58.61
2019-05-05T08:27:50.926Z,59.78
2019-05-05T08:28:50.921Z,60.22
2019-05-05T08:29:50.905Z,60.03
2019-05-05T08:30:50.907Z,62.93
2019-05-05T08:31:50.875Z,63.68
2019-05-05T08:32:50.856Z,65.38
2019-05-05T08:33:50.846Z,65.48
2019-05-05T08:34:59.865Z,66.10
2019-05-05T08:35:53.997Z,64.87
2019-05-05T08:36:50.838Z,64.97
2019-05-05T08:37:50.808Z,64.97
2019-05-05T08:38:50.810Z,64.56
2019-05-05T08:39:50.829Z,64.04
2019-05-05T08:40:50.767Z,63.74
2019-05-05T08:41:50.786Z,64.19
2019-05-05T08:42:50.750Z,62.59
2019-05-05T08:43:50.783Z,63.72
2019-05-05T08:44:50.771Z,63.18
2019-05-05T08:45:50.736Z,63.69
2019-05-05T08:46:50.703Z,63.69
2019-05-05T08:47:50.708Z,63.79
2019-05-05T08:48:50.712Z,62.18
2019-05-05T08:49:50.681Z,63.02
2019-05-05T08:50:50.678Z,61.38
2019-05-05T08:51:50.653Z,61.52
2019-05-05T08:52:50.630Z,57.86
2019-05-05T08:53:50.621Z,57.04
2019-05-05T08:54:50.618Z,55.10
2019-05-05T08:55:50.646Z,54.41
2019-05-05T08:56:50.585Z,56.12
2019-05-05T08:57:50.578Z,55.49
2019-05-05T08:58:50.565Z,58.67
2019-05-05T08:59:50.560Z,49.33
2019-05-05T09:00:50.578Z,50.04
2019-05-05T09:01:50.563Z,53.19
2019-05-05T09:02:50.523Z,53.80
2019-05-05T09:03:50.509Z,52.37
2019-05-05T09:04:50.520Z,52.55
2019-05-05T09:05:50.517Z,51.53
2019-05-05T09:06:50.476Z,53.49
2019-05-05T09:07:50.487Z,53.08
2019-05-05T09:08:50.456Z,52.60
2019-05-05T09:09:50.441Z,52.98
2019-05-05T09:10:52.283Z,53.29
2019-05-05T09:11:50.462Z,52.60
2019-05-05T09:12:50.406Z,56.04
2019-05-05T09:13:50.416Z,52.78
2019-05-05T09:14:50.382Z,52.50
2019-05-05T09:15:50.402Z,53.21
2019-05-05T09:16:50.380Z,53.39
2019-05-05T09:17:50.350Z,51.45
2019-05-05T09:18:50.359Z,51.40
2019-05-05T09:19:50.358Z,56.07
2019-05-05T09:20:50.317Z,52.96
2019-05-05T09:21:50.305Z,50.53
2019-05-05T09:22:50.296Z,53.26
2019-05-05T09:23:59.965Z,56.38
2019-05-05T09:24:51.294Z,55.97
2019-05-05T09:25:50.258Z,56.20
2019-05-05T09:26:50.247Z,55.62
2019-05-05T09:27:50.236Z,56.23
2019-05-05T09:28:50.226Z,57.43
2019-05-05T09:29:50.243Z,54.36
2019-05-05T09:30:50.264Z,54.57
2019-05-05T09:31:50.202Z,56.30
2019-05-05T09:32:50.181Z,57.23
2019-05-05T09:33:50.191Z,55.51
2019-05-05T09:34:50.190Z,58.00
2019-05-05T09:35:50.145Z,56.38
2019-05-05T09:36:50.137Z,56.82
2019-05-05T09:37:50.200Z,57.51
2019-05-05T09:38:50.138Z,55.66
2019-05-05T09:39:50.101Z,57.41
2019-05-05T09:40:50.153Z,56.07
2019-05-05T09:41:50.084Z,56.77
2019-05-05T09:42:50.069Z,56.69
2019-05-05T09:43:50.087Z,56.62
2019-05-05T09:44:50.051Z,56.34
2019-05-05T09:45:50.061Z,56.74
2019-05-05T09:46:50.022Z,56.02
2019-05-05T09:47:50.039Z,54.57
2019-05-05T09:48:50.001Z,52.39
2019-05-05T09:49:49.994Z,50.25
2019-05-05T09:50:49.975Z,51.45
2019-05-05T09:51:49.964Z,54.57
2019-05-05T09:52:49.989Z,55.62
2019-05-05T09:53:49.942Z,55.64
2019-05-05T09:54:49.935Z,55.87
2019-05-05T09:55:49.952Z,55.90
2019-05-05T09:56:49.933Z,58.59
2019-05-05T09:57:49.897Z,58.90
2019-05-05T09:58:49.886Z,58.69
2019-05-05T09:59:49.901Z,58.03
2019-05-05T10:00:49.867Z,56.82
2019-05-05T10:01:49.860Z,56.79
2019-05-05T10:02:49.870Z,59.47
2019-05-05T10:03:49.847Z,50.56
2019-05-05T10:04:49.819Z,50.31
2019-05-05T10:05:49.807Z,50.36
2019-05-05T10:06:49.799Z,51.23
2019-05-05T10:07:49.818Z,50.36
2019-05-05T10:08:49.774Z,49.49
2019-05-05T10:09:49.785Z,47.80
2019-05-05T10:10:49.762Z,48.72
2019-05-05T10:11:49.739Z,49.79
2019-05-05T10:12:52.273Z,50.65
2019-05-05T10:13:49.715Z,50.45
2019-05-05T10:14:49.706Z,52.64
2019-05-05T10:15:49.695Z,53.28
2019-05-05T10:16:49.725Z,54.44
2019-05-05T10:17:49.703Z,56.15
2019-05-05T10:18:49.675Z,55.77
2019-05-05T10:19:49.653Z,56.38
2019-05-05T10:20:49.649Z,56.30
2019-05-05T10:21:49.627Z,56.85
2019-05-05T10:22:49.635Z,56.54
2019-05-05T10:23:49.630Z,56.71
2019-05-05T10:24:49.596Z,57.15
2019-05-05T10:25:49.603Z,57.05
2019-05-05T10:26:49.602Z,56.46
2019-05-05T10:27:49.563Z,58.72
2019-05-05T10:28:49.547Z,57.70
2019-05-05T10:29:49.541Z,57.39
2019-05-05T10:30:49.551Z,55.90
2019-05-05T10:31:49.531Z,54.64
2019-05-05T10:32:49.504Z,53.03
2019-05-05T10:33:49.491Z,51.98
2019-05-05T10:34:49.502Z,52.14
2019-05-05T10:35:49.493Z,53.52
2019-05-05T10:36:49.468Z,46.63
2019-05-05T10:37:49.452Z,46.92
2019-05-05T10:38:49.468Z,47.71
2019-05-05T10:39:49.441Z,44.53
2019-05-05T10:40:49.436Z,42.69
2019-05-05T10:41:49.402Z,43.91
2019-05-05T10:42:49.391Z,43.20
2019-05-05T10:43:49.377Z,45.28
2019-05-05T10:44:49.397Z,44.16
2019-05-05T10:45:49.354Z,44.46
2019-05-05T10:46:49.349Z,45.12
2019-05-05T10:47:49.363Z,43.79
2019-05-05T10:48:49.342Z,45.92
2019-05-05T10:49:49.309Z,46.71
2019-05-05T10:50:49.298Z,44.34
2019-05-05T10:51:49.311Z,44.10
2019-05-05T10:52:49.277Z,44.69
2019-05-05T10:53:49.290Z,40.11
2019-05-05T10:54:49.253Z,44.77
2019-05-05T10:55:49.269Z,41.47
2019-05-05T10:56:49.249Z,40.45
2019-05-05T10:57:49.243Z,41.08
2019-05-05T10:58:49.228Z,40.90
2019-05-05T10:59:49.198Z,40.17
2019-05-05T11:00:49.204Z,41.47
2019-05-05T11:01:49.174Z,40.84
2019-05-05T11:02:49.187Z,40.21
2019-05-05T11:03:49.171Z,38.46
2019-05-05T11:04:49.140Z,40.50
2019-05-05T11:05:49.138Z,40.58
2019-05-05T11:06:49.119Z,42.08
2019-05-05T11:07:49.129Z,37.10
2019-05-05T11:08:49.114Z,39.34
2019-05-05T11:09:49.087Z,39.40
2019-05-05T11:10:49.072Z,40.16
2019-05-05T11:11:49.095Z,40.70
2019-05-05T11:12:49.098Z,40.35
2019-05-05T11:13:49.054Z,41.06
2019-05-05T11:14:49.028Z,41.94
2019-05-05T11:15:49.022Z,44.53
2019-05-05T11:16:49.088Z,44.04
2019-05-05T11:17:48.999Z,42.73
2019-05-05T11:18:48.992Z,45.41
2019-05-05T11:19:50.278Z,43.79
2019-05-05T11:20:48.964Z,46.07
2019-05-05T11:21:48.964Z,46.97
2019-05-05T11:22:48.951Z,46.35
2019-05-05T11:23:48.956Z,46.25
2019-05-05T11:24:58.370Z,46.84
2019-05-05T11:25:49.904Z,44.70
2019-05-05T11:26:48.917Z,45.00
2019-05-05T11:27:48.896Z,46.64
2019-05-05T11:28:48.868Z,46.72
2019-05-05T11:29:48.860Z,44.37
2019-05-05T11:30:48.852Z,46.03
2019-05-05T11:31:48.872Z,47.07
2019-05-05T11:32:48.824Z,48.50
2019-05-05T11:33:48.822Z,46.23
2019-05-05T11:34:48.800Z,45.20
2019-05-05T11:35:48.801Z,44.18
2019-05-05T11:36:48.812Z,46.23
2019-05-05T11:37:48.766Z,43.88
2019-05-05T11:38:48.754Z,45.43
2019-05-05T11:39:48.746Z,45.10
2019-05-05T11:40:48.751Z,44.08
2019-05-05T11:41:48.739Z,44.85
2019-05-05T11:42:48.710Z,44.17
2019-05-05T11:43:48.724Z,42.91
2019-05-05T11:44:48.700Z,41.28
2019-05-05T11:45:48.676Z,46.19
2019-05-05T11:46:48.686Z,44.35
2019-05-05T11:47:48.682Z,44.12
2019-05-05T11:48:48.646Z,44.24
2019-05-05T11:49:48.653Z,42.00
2019-05-05T11:50:48.625Z,44.96
2019-05-05T11:51:48.606Z,46.16
2019-05-05T11:52:48.598Z,45.55
2019-05-05T11:53:48.650Z,44.02
2019-05-05T11:54:48.609Z,45.20
2019-05-05T11:55:48.566Z,42.73
2019-05-05T11:56:48.554Z,41.49
2019-05-05T11:57:48.540Z,41.28
2019-05-05T11:58:48.529Z,41.98
2019-05-05T11:59:48.556Z,42.06
2019-05-05T12:00:48.506Z,39.84
2019-05-05T12:01:48.511Z,40.17
2019-05-05T12:02:48.483Z,42.33
2019-05-05T12:03:48.508Z,41.22
2019-05-05T12:04:48.478Z,42.73
2019-05-05T12:05:48.451Z,41.33
2019-05-05T12:06:48.442Z,41.85
2019-05-05T12:07:48.517Z,43.00
2019-05-05T12:08:48.428Z,43.08
2019-05-05T12:09:48.405Z,41.35
2019-05-05T12:10:48.419Z,43.57
2019-05-05T12:11:48.385Z,44.28
2019-05-05T12:12:48.371Z,42.24
2019-05-05T12:13:48.362Z,42.14
2019-05-05T12:14:48.351Z,41.83
2019-05-05T12:15:48.366Z,40.00
2019-05-05T12:16:48.338Z,41.83
2019-05-05T12:17:48.362Z,42.16
2019-05-05T12:18:48.304Z,42.35
2019-05-05T12:19:48.643Z,41.55
2019-05-05T12:20:48.308Z,43.82
2019-05-05T12:21:48.287Z,41.85
2019-05-05T12:22:48.257Z,44.18
2019-05-05T12:23:48.250Z,43.85
2019-05-05T12:24:48.235Z,43.35
2019-05-05T12:25:48.282Z,43.88
2019-05-05T12:26:48.216Z,42.55
2019-05-05T12:27:48.249Z,41.61
2019-05-05T12:28:48.192Z,41.63
2019-05-05T12:29:48.183Z,43.37
2019-05-05T12:30:48.196Z,44.49
2019-05-05T12:31:48.174Z,41.96
2019-05-05T12:32:48.145Z,43.29
2019-05-05T12:33:48.135Z,43.77
2019-05-05T12:34:48.128Z,41.65
2019-05-05T12:35:48.142Z,42.77
2019-05-05T12:36:48.133Z,42.55
2019-05-05T12:37:48.087Z,42.06
2019-05-05T12:38:48.209Z,41.75
2019-05-05T12:39:48.097Z,41.94
2019-05-05T12:40:48.061Z,44.49
2019-05-05T12:41:48.042Z,43.47
2019-05-05T12:42:48.032Z,43.77
2019-05-05T12:43:48.052Z,44.90
2019-05-05T12:44:48.018Z,42.55
2019-05-05T12:45:48.003Z,44.18
2019-05-05T12:46:47.989Z,43.26
2019-05-05T12:47:47.998Z,42.65
2019-05-05T12:48:48.040Z,41.63
2019-05-05T12:49:47.977Z,42.35
2019-05-05T12:50:47.939Z,41.22
2019-05-05T12:51:47.942Z,41.53
2019-05-05T12:52:47.939Z,42.65